Time;durP1;ratioP1;P1;durP2;ratioP2;P2;SDS_P1;SDS_P2;PMS_P1;PMS_P2;Temp;Humidity;BMP_temperature;BMP_pressure;BME280_temperature;BME280_humidity;BME280_pressure;Samples;Min_cycle;Max_cycle;Signal;HPM_P1;HPM_P2
2022/03/14 00:01:38;;;;;;;16.77;9.05;;;8.00;45.10;;;;;;4992033;28;20112;-65
2022/03/14 00:04:04;;;;;;;17.00;8.23;;;7.90;45.10;;;;;;4999440;28;20058;-63
2022/03/14 00:06:30;;;;;;;18.00;8.20;;;7.90;45.00;;;;;;5000728;28;20036;-62
2022/03/14 00:08:57;;;;;;;20.20;9.18;;;7.90;45.40;;;;;;5008736;28;20066;-62
2022/03/14 00:11:26;;;;;;;20.38;9.43;;;7.90;45.30;;;;;;5001794;28;20041;-64
2022/03/14 00:13:54;;;;;;;20.85;9.25;;;7.80;45.30;;;;;;5001981;28;20148;-62
2022/03/14 00:16:30;;;;;;;18.30;8.73;;;7.80;45.40;;;;;;5008324;28;20022;-63
2022/03/14 00:18:57;;;;;;;20.05;9.80;;;7.80;45.70;;;;;;5001314;28;20058;-63
2022/03/14 00:21:24;;;;;;;19.27;9.48;;;7.70;46.10;;;;;;5003655;28;20495;-65
2022/03/14 00:23:54;;;;;;;17.20;8.25;;;7.70;46.20;;;;;;5007212;28;20038;-62
2022/03/14 00:26:22;;;;;;;15.88;8.25;;;7.70;46.20;;;;;;5007829;28;20064;-62
2022/03/14 00:28:48;;;;;;;20.05;8.68;;;7.60;46.40;;;;;;4999886;28;20031;-62
2022/03/14 00:31:14;;;;;;;14.85;8.20;;;7.60;46.40;;;;;;5005343;28;20025;-63
2022/03/14 00:33:40;;;;;;;18.00;8.68;;;7.60;46.50;;;;;;5004875;28;20026;-63
2022/03/14 00:36:07;;;;;;;18.23;9.38;;;7.50;46.80;;;;;;5004585;28;20037;-62
2022/03/14 00:38:34;;;;;;;16.92;8.43;;;7.50;46.80;;;;;;5004572;28;20014;-62
2022/03/14 00:40:59;;;;;;;16.38;8.13;;;7.50;47.10;;;;;;5006000;28;20432;-62
2022/03/14 00:43:28;;;;;;;20.20;8.82;;;7.40;47.10;;;;;;5002483;28;20029;-62
2022/03/14 00:45:53;;;;;;;18.15;8.77;;;7.40;47.10;;;;;;5001672;28;20030;-65
2022/03/14 00:48:19;;;;;;;21.75;8.57;;;7.40;47.10;;;;;;5008190;28;20475;-64
2022/03/14 00:50:45;;;;;;;15.75;8.52;;;7.30;47.30;;;;;;5000131;28;20043;-64
2022/03/14 00:53:11;;;;;;;17.20;7.97;;;7.30;47.40;;;;;;5009107;28;20025;-64
2022/03/14 00:55:36;;;;;;;16.25;9.05;;;7.20;47.40;;;;;;5000722;28;20018;-61
2022/03/14 00:58:02;;;;;;;19.83;9.02;;;7.30;47.60;;;;;;5008647;28;20052;-63
2022/03/14 01:00:28;;;;;;;16.73;8.43;;;7.20;47.50;;;;;;5001157;28;20502;-63
2022/03/14 01:02:53;;;;;;;21.98;8.90;;;7.20;47.60;;;;;;5008701;28;20405;-63
2022/03/14 01:05:19;;;;;;;17.20;8.77;;;7.20;47.90;;;;;;5001192;28;20030;-63
2022/03/14 01:07:45;;;;;;;17.88;8.88;;;7.20;47.80;;;;;;5008407;28;20181;-63
2022/03/14 01:10:11;;;;;;;16.80;8.43;;;7.10;47.80;;;;;;4998042;28;20468;-63
2022/03/14 01:12:37;;;;;;;20.20;8.90;;;7.10;47.90;;;;;;4991477;28;20420;-64
2022/03/14 01:15:03;;;;;;;16.52;8.82;;;7.10;47.90;;;;;;5000491;28;20117;-63
2022/03/14 01:17:29;;;;;;;17.90;8.98;;;7.10;48.00;;;;;;5002564;28;20027;-62
2022/03/14 01:19:54;;;;;;;17.60;8.38;;;7.00;48.10;;;;;;5000451;28;20534;-64
2022/03/14 01:22:20;;;;;;;18.08;9.20;;;7.00;48.20;;;;;;5000845;28;20030;-63
2022/03/14 01:24:46;;;;;;;19.80;8.88;;;7.00;48.40;;;;;;5007394;28;20045;-63
2022/03/14 01:27:12;;;;;;;17.65;8.75;;;7.00;48.40;;;;;;5000195;28;20021;-63
2022/03/14 01:29:38;;;;;;;22.55;8.65;;;6.90;48.50;;;;;;5007468;28;20352;-64
2022/03/14 01:32:05;;;;;;;19.88;8.75;;;6.90;48.60;;;;;;5001213;28;20535;-63
2022/03/14 01:34:30;;;;;;;22.88;9.32;;;6.90;48.70;;;;;;5008450;28;20493;-63
2022/03/14 01:36:56;;;;;;;18.45;9.02;;;6.90;48.70;;;;;;5000527;28;20022;-63
2022/03/14 01:39:22;;;;;;;17.27;9.27;;;6.80;48.70;;;;;;5008437;28;20129;-63
2022/03/14 01:41:48;;;;;;;21.15;8.73;;;6.80;48.80;;;;;;5001388;28;20439;-63
2022/03/14 01:44:14;;;;;;;20.45;8.73;;;6.80;49.10;;;;;;5007547;28;20021;-63
2022/03/14 01:46:40;;;;;;;22.48;9.10;;;6.80;49.10;;;;;;5000344;28;20030;-63
2022/03/14 01:49:05;;;;;;;17.77;8.80;;;6.70;49.10;;;;;;5008352;28;20080;-64
2022/03/14 01:51:33;;;;;;;22.65;9.32;;;6.70;49.10;;;;;;4999083;28;20495;-64
2022/03/14 01:53:59;;;;;;;17.58;9.00;;;6.70;49.90;;;;;;5007895;28;20373;-63
2022/03/14 01:56:25;;;;;;;19.60;8.70;;;6.60;49.20;;;;;;5008077;28;20019;-64
2022/03/14 01:58:52;;;;;;;26.77;9.32;;;6.70;49.40;;;;;;5009478;28;20045;-64
2022/03/14 02:01:20;;;;;;;21.75;9.65;;;6.70;49.60;;;;;;5009241;28;20034;-63
2022/03/14 02:03:50;;;;;;;18.00;9.00;;;6.60;49.50;;;;;;5006336;28;20034;-64
2022/03/14 02:06:17;;;;;;;21.27;9.13;;;6.60;49.70;;;;;;5003027;28;20602;-64
2022/03/14 02:08:43;;;;;;;21.52;9.27;;;6.50;49.70;;;;;;4999571;28;20390;-64
2022/03/14 02:11:08;;;;;;;21.27;9.75;;;6.50;49.90;;;;;;5005901;28;20030;-63
2022/03/14 02:13:34;;;;;;;21.63;9.13;;;6.50;50.00;;;;;;4994795;28;20026;-64
2022/03/14 02:16:00;;;;;;;18.20;9.32;;;6.50;50.20;;;;;;5001715;28;20084;-64
2022/03/14 02:18:25;;;;;;;19.80;9.00;;;6.50;50.40;;;;;;5000445;28;20022;-64
2022/03/14 02:20:51;;;;;;;18.50;8.68;;;6.40;50.40;;;;;;5008200;28;20026;-64
2022/03/14 02:23:17;;;;;;;18.08;8.63;;;6.40;50.50;;;;;;5001313;28;20380;-64
2022/03/14 02:25:53;;;;;;;20.58;8.98;;;6.40;50.60;;;;;;5007683;28;20029;-64
2022/03/14 02:28:21;;;;;;;19.08;9.27;;;6.30;50.50;;;;;;4999802;28;20029;-64
2022/03/14 02:30:47;;;;;;;19.48;9.23;;;6.30;50.60;;;;;;5008763;28;20030;-63
2022/03/14 02:33:13;;;;;;;20.58;8.68;;;6.30;51.00;;;;;;5008956;28;20033;-63
2022/03/14 02:35:42;;;;;;;24.95;9.00;;;6.20;50.90;;;;;;4992360;28;20352;-64
2022/03/14 02:38:16;;;;;;;23.30;9.70;;;6.30;51.00;;;;;;5008577;28;20027;-63
2022/03/14 02:40:46;;;;;;;17.08;9.20;;;6.20;51.10;;;;;;5008272;28;20132;-63
2022/03/14 02:43:24;;;;;;;23.55;8.95;;;6.20;51.20;;;;;;5008319;28;20073;-63
2022/03/14 02:45:51;;;;;;;22.25;9.07;;;6.20;51.30;;;;;;5009040;28;20029;-63
2022/03/14 02:48:17;;;;;;;19.23;9.80;;;6.20;51.50;;;;;;5006921;28;20510;-63
2022/03/14 02:50:43;;;;;;;22.77;8.82;;;6.20;51.60;;;;;;5007345;28;20033;-63
2022/03/14 02:53:13;;;;;;;19.80;9.45;;;6.20;51.50;;;;;;5007730;28;20018;-63
2022/03/14 02:55:39;;;;;;;19.02;9.27;;;6.20;52.00;;;;;;5005262;28;20033;-62
2022/03/14 02:58:06;;;;;;;23.80;10.02;;;6.10;51.90;;;;;;5003581;28;20030;-62
2022/03/14 03:00:32;;;;;;;20.02;9.38;;;6.10;51.90;;;;;;5010546;28;20033;-62
2022/03/14 03:02:58;;;;;;;18.60;9.30;;;6.10;52.00;;;;;;5003292;28;20038;-63
2022/03/14 03:05:23;;;;;;;19.80;9.43;;;6.10;52.00;;;;;;5009528;28;20030;-63
2022/03/14 03:07:49;;;;;;;22.17;9.57;;;6.10;52.40;;;;;;5003578;28;20148;-63
2022/03/14 03:10:20;;;;;;;18.50;9.00;;;6.10;52.40;;;;;;5010546;28;20029;-63
2022/03/14 03:12:47;;;;;;;20.25;9.23;;;6.10;52.30;;;;;;5002784;28;20403;-63
2022/03/14 03:15:15;;;;;;;22.23;10.25;;;6.00;52.50;;;;;;5010118;28;20038;-62
2022/03/14 03:17:43;;;;;;;23.63;10.07;;;6.00;52.70;;;;;;5003210;28;20032;-63
2022/03/14 03:20:11;;;;;;;20.67;9.82;;;6.00;52.70;;;;;;5010741;28;20113;-62
2022/03/14 03:22:38;;;;;;;23.80;10.40;;;6.00;52.50;;;;;;5002473;28;20053;-62
2022/03/14 03:25:05;;;;;;;20.15;9.52;;;5.90;52.20;;;;;;5009838;28;20037;-62
2022/03/14 03:27:32;;;;;;;17.85;8.48;;;5.90;52.30;;;;;;5002290;28;20399;-63
2022/03/14 03:29:58;;;;;;;23.05;10.23;;;5.90;52.40;;;;;;5010521;28;20061;-62
2022/03/14 03:32:23;;;;;;;20.98;9.50;;;5.90;52.70;;;;;;5001529;28;20035;-64
2022/03/14 03:34:50;;;;;;;21.55;9.80;;;5.80;53.10;;;;;;5002899;28;20109;-64
2022/03/14 03:37:15;;;;;;;23.05;9.05;;;5.80;53.20;;;;;;5009810;28;20045;-64
2022/03/14 03:39:41;;;;;;;19.55;9.80;;;5.70;53.30;;;;;;5001345;28;20037;-63
2022/03/14 03:42:07;;;;;;;21.80;10.10;;;5.80;53.80;;;;;;5008394;28;20034;-63
2022/03/14 03:44:32;;;;;;;23.17;10.40;;;5.80;54.00;;;;;;5004278;28;20049;-62
2022/03/14 03:46:58;;;;;;;18.77;10.20;;;5.70;54.60;;;;;;5009165;28;20144;-62
2022/03/14 03:49:24;;;;;;;23.50;10.27;;;5.70;54.60;;;;;;5004301;28;20105;-63
2022/03/14 03:51:50;;;;;;;26.35;10.40;;;5.70;54.70;;;;;;5008248;28;20098;-62
2022/03/14 03:54:15;;;;;;;25.85;10.50;;;5.70;54.90;;;;;;5006577;28;20042;-63
2022/03/14 03:56:41;;;;;;;26.30;9.80;;;5.70;55.30;;;;;;5003914;28;20065;-63
2022/03/14 03:59:07;;;;;;;19.13;9.50;;;5.70;55.70;;;;;;5007221;28;20034;-64
2022/03/14 04:01:33;;;;;;;24.42;10.32;;;5.60;55.80;;;;;;5004508;28;20030;-65
2022/03/14 04:04:01;;;;;;;22.23;9.65;;;5.60;56.10;;;;;;5002893;28;20048;-64
2022/03/14 04:06:30;;;;;;;22.38;10.23;;;5.60;55.90;;;;;;5008326;28;20030;-64
2022/03/14 04:08:56;;;;;;;26.88;10.65;;;5.50;55.50;;;;;;5002097;28;20044;-63
2022/03/14 04:11:22;;;;;;;22.60;10.43;;;5.50;55.70;;;;;;5004046;28;20038;-63
2022/03/14 04:13:51;;;;;;;26.50;11.57;;;5.50;55.50;;;;;;5007219;28;20022;-63
2022/03/14 04:16:18;;;;;;;22.08;10.38;;;5.50;55.10;;;;;;5004636;28;20050;-63
2022/03/14 04:18:47;;;;;;;22.83;9.93;;;5.50;55.00;;;;;;5006025;28;20029;-63
2022/03/14 04:21:14;;;;;;;18.10;9.85;;;5.40;55.20;;;;;;5005555;28;20416;-64
2022/03/14 04:23:40;;;;;;;24.42;9.88;;;5.40;55.40;;;;;;5005244;28;20364;-63
2022/03/14 04:26:06;;;;;;;21.52;10.27;;;5.40;56.00;;;;;;5006783;28;20117;-64
2022/03/14 04:28:31;;;;;;;21.67;9.88;;;5.40;56.20;;;;;;5004671;28;20046;-64
2022/03/14 04:30:58;;;;;;;23.98;10.35;;;5.40;56.40;;;;;;5008388;28;20126;-64
2022/03/14 04:33:24;;;;;;;22.00;10.43;;;5.40;56.50;;;;;;5003833;28;20081;-63
2022/03/14 04:35:50;;;;;;;20.90;10.05;;;5.30;56.40;;;;;;5008621;28;20034;-63
2022/03/14 04:38:18;;;;;;;26.55;11.25;;;5.30;56.90;;;;;;5002290;28;20084;-64
2022/03/14 04:40:44;;;;;;;23.05;10.65;;;5.20;56.90;;;;;;5003749;28;20038;-63
2022/03/14 04:43:10;;;;;;;22.58;10.13;;;5.20;57.10;;;;;;5001887;28;20518;-63
2022/03/14 04:45:38;;;;;;;23.25;10.55;;;5.20;57.10;;;;;;5001279;28;20099;-63
2022/03/14 04:48:06;;;;;;;24.90;11.15;;;5.20;57.00;;;;;;5009495;28;20083;-63
2022/03/14 04:50:32;;;;;;;26.90;11.00;;;5.20;57.30;;;;;;5001443;28;20053;-63
2022/03/14 04:53:01;;;;;;;25.65;10.85;;;5.20;57.10;;;;;;5009618;28;20041;-63
2022/03/14 04:55:26;;;;;;;22.67;11.15;;;5.20;57.70;;;;;;5000299;28;20057;-63
2022/03/14 04:57:52;;;;;;;21.10;10.63;;;5.10;56.60;;;;;;5009421;28;20076;-64
2022/03/14 05:00:18;;;;;;;28.13;11.52;;;5.10;56.30;;;;;;5005933;28;20034;-63
2022/03/14 05:02:44;;;;;;;24.38;10.65;;;5.10;56.40;;;;;;5006400;28;20164;-63
2022/03/14 05:05:13;;;;;;;23.77;11.18;;;5.20;56.40;;;;;;5005491;28;20496;-63
2022/03/14 05:07:41;;;;;;;24.73;11.18;;;5.10;56.30;;;;;;4998296;28;20054;-63
2022/03/14 05:10:07;;;;;;;27.15;12.73;;;5.10;56.50;;;;;;5007820;28;20033;-64
2022/03/14 05:12:34;;;;;;;24.30;10.77;;;5.00;56.30;;;;;;5002649;28;20033;-64
2022/03/14 05:15:00;;;;;;;20.60;10.82;;;5.00;56.10;;;;;;5008030;28;20480;-64
2022/03/14 05:17:27;;;;;;;26.38;10.98;;;5.00;56.20;;;;;;5003013;28;20038;-63
2022/03/14 05:19:53;;;;;;;24.95;10.88;;;5.00;56.50;;;;;;5007447;28;20037;-64
2022/03/14 05:22:19;;;;;;;22.48;10.68;;;5.00;56.10;;;;;;5008918;28;20069;-63
2022/03/14 05:24:45;;;;;;;23.40;11.30;;;5.00;56.20;;;;;;4993370;28;20038;-64
2022/03/14 05:27:12;;;;;;;25.05;10.98;;;4.90;56.30;;;;;;4999936;28;20391;-64
2022/03/14 05:29:37;;;;;;;28.02;11.43;;;4.90;56.00;;;;;;5001014;28;20487;-64
2022/03/14 05:32:03;;;;;;;26.17;11.93;;;4.90;56.20;;;;;;5000795;28;20034;-64
2022/03/14 05:34:29;;;;;;;24.02;11.45;;;4.90;56.10;;;;;;5002313;28;20407;-63
2022/03/14 05:36:54;;;;;;;23.77;11.10;;;4.80;56.20;;;;;;5000441;28;20026;-63
2022/03/14 05:39:20;;;;;;;24.17;11.43;;;4.80;56.50;;;;;;5001084;28;20057;-64
2022/03/14 05:41:46;;;;;;;25.63;11.43;;;4.80;56.50;;;;;;5009288;28;20392;-64
2022/03/14 05:44:11;;;;;;;30.13;10.90;;;4.80;56.40;;;;;;4994905;28;20446;-64
2022/03/14 05:46:37;;;;;;;29.48;11.88;;;4.70;56.30;;;;;;5000325;28;20037;-64
2022/03/14 05:49:04;;;;;;;29.60;12.15;;;4.70;56.20;;;;;;5001115;28;20076;-64
2022/03/14 05:51:33;;;;;;;27.17;12.00;;;4.70;56.20;;;;;;5007961;28;20057;-64
2022/03/14 05:53:59;;;;;;;32.42;11.93;;;4.70;56.20;;;;;;5001448;28;20025;-64
2022/03/14 05:56:25;;;;;;;36.15;12.55;;;4.70;56.50;;;;;;5007581;28;20037;-64
2022/03/14 05:58:51;;;;;;;33.55;11.98;;;4.70;56.70;;;;;;5001347;28;20080;-63
2022/03/14 06:01:17;;;;;;;29.48;12.32;;;4.80;56.60;;;;;;5008662;28;20387;-63
2022/03/14 06:03:42;;;;;;;31.92;12.43;;;4.70;56.40;;;;;;5000509;28;20027;-65
2022/03/14 06:06:08;;;;;;;31.88;13.45;;;4.70;56.60;;;;;;5001892;28;20125;-63
2022/03/14 06:08:34;;;;;;;33.85;13.40;;;4.70;56.60;;;;;;5005118;28;20426;-62
2022/03/14 06:10:59;;;;;;;37.85;13.30;;;4.70;56.60;;;;;;5012387;28;20026;-62
2022/03/14 06:13:25;;;;;;;32.22;12.68;;;4.80;57.30;;;;;;5007411;28;20049;-63
2022/03/14 06:15:51;;;;;;;28.08;12.80;;;4.80;57.30;;;;;;5007112;28;20137;-64
2022/03/14 06:18:17;;;;;;;47.60;13.63;;;4.80;57.30;;;;;;4993278;28;20365;-64
2022/03/14 06:20:43;;;;;;;36.25;13.10;;;4.80;57.60;;;;;;5005440;28;20033;-64
2022/03/14 06:23:09;;;;;;;36.58;13.65;;;4.80;57.80;;;;;;5004260;28;20017;-65
2022/03/14 06:25:36;;;;;;;39.10;14.18;;;4.70;57.90;;;;;;5007070;28;20033;-64
2022/03/14 06:28:02;;;;;;;37.13;13.52;;;4.80;58.40;;;;;;5004440;28;20074;-64
2022/03/14 06:30:28;;;;;;;50.60;13.77;;;4.80;58.60;;;;;;5005659;28;20184;-64
2022/03/14 06:32:54;;;;;;;42.28;13.60;;;4.70;59.00;;;;;;5004055;28;20125;-64
2022/03/14 06:35:20;;;;;;;46.53;15.95;;;4.70;59.00;;;;;;5006566;28;20030;-62
2022/03/14 06:37:46;;;;;;;41.85;13.18;;;4.80;59.00;;;;;;5008357;28;20378;-64
2022/03/14 06:40:12;;;;;;;36.13;13.10;;;4.80;58.70;;;;;;5000663;28;20034;-64
2022/03/14 06:42:41;;;;;;;33.80;13.25;;;4.80;57.90;;;;;;5003467;28;20030;-64
2022/03/14 06:45:11;;;;;;;39.45;14.18;;;4.80;57.70;;;;;;5009867;28;20100;-63
2022/03/14 06:47:38;;;;;;;30.50;12.50;;;4.90;57.50;;;;;;5003850;28;20022;-63
2022/03/14 06:50:05;;;;;;;24.00;11.10;;;4.90;56.70;;;;;;5009885;28;20022;-63
2022/03/14 06:52:31;;;;;;;30.35;11.50;;;5.00;56.10;;;;;;5001657;28;20017;-63
2022/03/14 06:54:56;;;;;;;26.15;11.73;;;4.90;55.60;;;;;;5003715;28;20030;-63
2022/03/14 06:57:22;;;;;;;27.95;12.18;;;4.90;55.90;;;;;;5006411;28;20092;-63
2022/03/14 06:59:47;;;;;;;24.88;12.30;;;5.00;56.10;;;;;;5008813;28;20519;-63
2022/03/14 07:02:13;;;;;;;32.10;12.30;;;5.00;56.10;;;;;;5007534;28;20041;-64
2022/03/14 07:04:39;;;;;;;32.33;12.13;;;4.90;55.70;;;;;;5002977;28;20392;-64
2022/03/14 07:07:05;;;;;;;25.15;12.75;;;5.00;55.60;;;;;;5005542;28;20040;-64
2022/03/14 07:09:31;;;;;;;25.88;11.43;;;5.00;55.60;;;;;;5004862;28;20037;-64
2022/03/14 07:11:58;;;;;;;24.98;12.88;;;5.10;55.40;;;;;;5005928;28;20387;-64
2022/03/14 07:14:24;;;;;;;30.77;12.02;;;5.10;55.30;;;;;;5010615;28;20022;-63
2022/03/14 07:16:50;;;;;;;29.52;11.70;;;5.10;55.60;;;;;;5003282;28;20446;-64
2022/03/14 07:19:16;;;;;;;24.70;11.70;;;5.10;55.10;;;;;;5010171;28;20037;-64
2022/03/14 07:21:42;;;;;;;29.25;13.43;;;5.10;55.40;;;;;;5003504;28;20030;-63
2022/03/14 07:24:08;;;;;;;24.65;12.13;;;5.10;55.40;;;;;;5010715;28;20124;-64
2022/03/14 07:26:34;;;;;;;28.55;11.77;;;5.20;56.30;;;;;;5002750;28;20123;-65
2022/03/14 07:29:01;;;;;;;26.38;12.32;;;5.30;55.60;;;;;;5009302;28;20034;-64
2022/03/14 07:31:26;;;;;;;24.25;12.38;;;5.30;55.20;;;;;;5006239;28;20303;-64
2022/03/14 07:33:52;;;;;;;25.10;12.18;;;5.30;55.20;;;;;;5005134;28;20036;-66
2022/03/14 07:36:18;;;;;;;27.25;12.65;;;5.30;54.90;;;;;;5004069;28;20101;-65
2022/03/14 07:38:45;;;;;;;25.25;12.13;;;5.40;54.40;;;;;;4991959;28;20341;-61
2022/03/14 07:41:10;;;;;;;25.70;11.93;;;5.40;54.30;;;;;;5003773;28;20026;-61
2022/03/14 07:43:37;;;;;;;26.25;12.38;;;5.40;54.50;;;;;;5005809;28;20129;-58
2022/03/14 07:46:05;;;;;;;24.95;12.40;;;5.40;54.40;;;;;;4998242;28;20034;-62
2022/03/14 07:59:07;;;;;;;25.15;12.15;;;5.70;53.80;;;;;;5511139;22;20046;-59
2022/03/14 08:01:32;;;;;;;25.95;12.50;;;5.80;53.60;;;;;;5026946;28;20493;-53
2022/03/14 08:03:58;;;;;;;32.72;13.45;;;5.80;53.80;;;;;;5030731;28;20029;-51
2022/03/14 08:06:24;;;;;;;25.08;12.77;;;5.90;54.10;;;;;;5027850;28;20072;-52
2022/03/14 08:08:50;;;;;;;28.40;13.98;;;5.90;53.80;;;;;;5027717;28;20040;-57
2022/03/14 08:11:17;;;;;;;28.75;12.73;;;6.00;54.30;;;;;;5029531;28;20026;-56
2022/03/14 08:13:44;;;;;;;25.30;12.35;;;6.20;54.60;;;;;;5031000;28;20339;-54
2022/03/14 08:16:10;;;;;;;26.10;13.02;;;6.30;54.30;;;;;;5026543;28;20029;-56
2022/03/14 08:18:37;;;;;;;31.83;14.23;;;6.40;54.30;;;;;;5022397;28;20029;-57
2022/03/14 08:21:03;;;;;;;27.65;12.52;;;6.50;54.00;;;;;;5028944;28;20040;-54
2022/03/14 08:23:30;;;;;;;29.38;12.85;;;6.40;54.10;;;;;;5029669;28;20025;-51
2022/03/14 08:25:56;;;;;;;28.58;13.25;;;6.40;54.10;;;;;;5029012;28;20029;-54
2022/03/14 08:28:22;;;;;;;27.98;12.38;;;6.40;53.70;;;;;;5028593;28;20040;-53
2022/03/14 08:30:48;;;;;;;27.63;13.52;;;6.40;53.20;;;;;;5030321;28;20037;-58
2022/03/14 08:33:16;;;;;;;26.05;12.90;;;6.40;53.20;;;;;;5024793;28;20160;-57
2022/03/14 08:35:44;;;;;;;30.23;13.55;;;6.40;53.30;;;;;;5024821;28;20025;-55
2022/03/14 08:38:12;;;;;;;25.52;12.48;;;6.60;53.30;;;;;;5036685;28;20033;-55
2022/03/14 08:40:38;;;;;;;27.52;12.23;;;6.70;53.00;;;;;;5029581;28;20052;-52
2022/03/14 08:43:03;;;;;;;21.95;11.73;;;6.80;52.70;;;;;;5028789;28;20029;-52
2022/03/14 08:45:30;;;;;;;31.05;13.45;;;6.90;52.90;;;;;;5027602;28;20042;-53
2022/03/14 08:47:57;;;;;;;26.27;13.45;;;7.00;52.70;;;;;;5027753;28;20034;-60
2022/03/14 08:50:23;;;;;;;30.42;13.88;;;7.00;52.30;;;;;;5028783;28;20470;-53
2022/03/14 08:52:49;;;;;;;26.30;12.80;;;7.00;52.40;;;;;;5030418;28;20131;-55
2022/03/14 08:55:17;;;;;;;27.40;13.02;;;7.10;52.20;;;;;;5027111;28;20445;-51
2022/03/14 08:57:43;;;;;;;26.08;12.60;;;7.20;52.10;;;;;;5029357;28;20478;-54
2022/03/14 09:00:11;;;;;;;26.02;13.68;;;7.30;51.90;;;;;;5027068;28;20030;-51
2022/03/14 09:02:36;;;;;;;25.88;12.50;;;7.40;51.80;;;;;;5029630;28;20139;-53
2022/03/14 09:05:03;;;;;;;28.75;13.48;;;7.50;51.70;;;;;;5026705;28;20111;-52
2022/03/14 09:07:31;;;;;;;26.30;12.68;;;7.40;51.50;;;;;;5029666;28;20045;-53
2022/03/14 09:10:06;;;;;;;25.02;13.00;;;7.40;51.70;;;;;;5007863;28;20116;-52
2022/03/14 09:12:35;;;;;;;26.85;12.63;;;7.50;52.00;;;;;;5029293;28;20049;-54
2022/03/14 09:15:03;;;;;;;26.27;12.63;;;7.60;51.60;;;;;;5027114;28;20135;-52
2022/03/14 09:17:29;;;;;;;24.55;12.60;;;7.50;51.60;;;;;;5027979;28;20036;-49
2022/03/14 09:19:57;;;;;;;24.67;12.60;;;7.50;52.30;;;;;;5028893;28;20045;-50
2022/03/14 09:22:23;;;;;;;28.05;13.30;;;7.50;52.40;;;;;;5027954;28;20037;-57
2022/03/14 09:24:51;;;;;;;32.30;13.32;;;7.70;52.30;;;;;;5027714;28;20044;-55
2022/03/14 09:27:16;;;;;;;30.60;13.95;;;7.80;52.10;;;;;;5028320;28;20029;-55
2022/03/14 09:29:42;;;;;;;29.48;13.65;;;7.90;51.90;;;;;;5028211;28;20033;-56
2022/03/14 09:32:08;;;;;;;28.42;12.95;;;7.90;52.30;;;;;;5026752;28;20063;-55
2022/03/14 09:34:36;;;;;;;35.17;13.57;;;8.10;51.60;;;;;;5025104;28;20087;-54
2022/03/14 09:37:02;;;;;;;31.30;12.52;;;8.10;51.10;;;;;;5023663;28;20053;-54
2022/03/14 09:39:28;;;;;;;29.50;12.90;;;8.10;51.10;;;;;;5028513;28;20030;-54
2022/03/14 09:41:56;;;;;;;26.63;13.13;;;8.20;52.40;;;;;;5031527;28;20437;-55
2022/03/14 09:44:26;;;;;;;28.95;13.38;;;8.30;51.80;;;;;;5025108;28;20093;-55
2022/03/14 09:46:57;;;;;;;29.13;13.48;;;8.40;51.70;;;;;;5039884;28;20120;-54
2022/03/14 09:49:26;;;;;;;32.20;12.82;;;8.60;51.80;;;;;;5032330;28;20022;-57
2022/03/14 09:51:54;;;;;;;30.95;14.05;;;8.70;51.90;;;;;;5027976;28;20049;-56
2022/03/14 09:54:23;;;;;;;33.70;13.48;;;8.80;52.40;;;;;;5023653;28;20087;-55
2022/03/14 09:56:49;;;;;;;29.58;13.15;;;9.10;52.30;;;;;;5030850;28;20626;-57
2022/03/14 09:59:14;;;;;;;27.88;13.07;;;9.30;51.40;;;;;;5028716;28;20037;-55
2022/03/14 10:01:41;;;;;;;29.52;13.35;;;9.40;51.50;;;;;;5040669;28;20038;-55
2022/03/14 10:04:08;;;;;;;27.83;13.43;;;9.30;52.00;;;;;;5031137;28;20458;-55
2022/03/14 10:06:35;;;;;;;33.55;13.32;;;9.40;52.20;;;;;;5032006;28;20112;-53
2022/03/14 10:09:01;;;;;;;30.27;13.90;;;9.40;51.90;;;;;;5031416;28;20037;-55
2022/03/14 10:11:27;;;;;;;27.40;13.35;;;9.40;52.00;;;;;;5027370;28;20367;-54
2022/03/14 10:13:54;;;;;;;30.63;12.85;;;9.50;52.20;;;;;;5032107;28;20056;-56
2022/03/14 10:16:20;;;;;;;28.92;12.75;;;9.60;52.80;;;;;;5032181;28;20446;-54
2022/03/14 10:19:07;;;;;;;25.05;12.13;;;9.80;52.90;;;;;;5032124;28;20411;-54
2022/03/14 10:21:38;;;;;;;30.13;13.52;;;9.60;53.60;;;;;;5025965;28;20013;-56
2022/03/14 10:24:05;;;;;;;28.10;12.02;;;9.60;54.80;;;;;;5031655;28;20029;-55
2022/03/14 10:26:33;;;;;;;25.30;12.98;;;9.40;55.30;;;;;;5031986;28;20076;-55
2022/03/14 10:29:00;;;;;;;24.50;12.40;;;9.30;55.80;;;;;;5032552;28;20041;-56
2022/03/14 10:31:37;;;;;;;31.40;12.98;;;9.30;56.20;;;;;;5032256;28;20036;-53
2022/03/14 10:34:12;;;;;;;29.85;13.48;;;9.30;56.60;;;;;;5032483;28;20038;-56
2022/03/14 10:36:53;;;;;;;31.38;13.10;;;9.30;56.60;;;;;;5031655;28;20030;-54
2022/03/14 10:39:25;;;;;;;28.00;13.05;;;9.20;56.80;;;;;;5024614;28;20041;-56
2022/03/14 10:42:04;;;;;;;28.52;13.38;;;9.30;57.80;;;;;;5031301;28;20041;-58
2022/03/14 10:44:31;;;;;;;27.50;12.93;;;9.20;57.90;;;;;;5029550;28;20036;-57
2022/03/14 10:47:03;;;;;;;29.98;13.10;;;9.20;58.40;;;;;;5032151;28;20091;-57
2022/03/14 10:49:30;;;;;;;29.98;13.35;;;9.20;59.50;;;;;;5026886;28;20041;-57
2022/03/14 10:51:59;;;;;;;26.73;12.75;;;9.20;60.50;;;;;;5014229;28;20033;-57
2022/03/14 10:54:25;;;;;;;29.05;13.43;;;9.40;61.40;;;;;;5025919;28;20038;-56
2022/03/14 10:57:16;;;;;;;28.90;12.27;;;9.40;62.60;;;;;;5040408;28;20026;-57
2022/03/14 10:59:47;;;;;;;26.60;12.50;;;9.40;66.80;;;;;;5012588;28;20030;-57
2022/03/14 11:02:24;;;;;;;30.83;13.05;;;9.50;69.40;;;;;;5015089;28;20030;-56
2022/03/14 11:04:51;;;;;;;27.70;12.88;;;9.40;71.10;;;;;;5029665;28;20041;-57
2022/03/14 11:07:19;;;;;;;31.70;13.63;;;9.50;73.10;;;;;;5027798;28;20025;-57
2022/03/14 11:09:47;;;;;;;26.58;12.70;;;9.40;77.70;;;;;;5022991;28;20026;-53
2022/03/14 11:12:18;;;;;;;30.90;12.63;;;9.50;82.10;;;;;;5023155;28;20130;-54
2022/03/14 11:14:54;;;;;;;28.48;14.75;;;9.50;85.50;;;;;;5026739;28;20026;-57
2022/03/14 11:17:24;;;;;;;26.50;12.25;;;9.60;89.30;;;;;;5026844;28;20081;-58
2022/03/14 11:19:51;;;;;;;25.73;12.25;;;9.60;91.20;;;;;;5031666;28;20096;-56
2022/03/14 11:22:18;;;;;;;31.55;12.77;;;9.60;93.80;;;;;;5030727;28;20036;-54
2022/03/14 11:24:50;;;;;;;29.60;13.40;;;9.60;95.80;;;;;;5014251;28;20044;-54
2022/03/14 11:27:29;;;;;;;28.23;14.75;;;9.70;98.10;;;;;;5030070;28;20038;-54
2022/03/14 11:30:03;;;;;;;26.15;12.07;;;9.60;99.90;;;;;;5031413;28;20037;-55
2022/03/14 11:32:31;;;;;;;26.90;14.10;;;9.70;99.90;;;;;;5030552;28;20105;-53
2022/03/14 11:34:57;;;;;;;18.40;11.00;;;9.60;99.90;;;;;;5032304;28;20039;-55
2022/03/14 11:37:24;;;;;;;19.70;10.82;;;9.60;99.90;;;;;;5030572;28;20017;-53
2022/03/14 11:39:52;;;;;;;22.20;11.35;;;9.70;99.90;;;;;;5031537;28;20075;-56
2022/03/14 11:42:18;;;;;;;19.05;11.30;;;9.60;99.90;;;;;;5030335;28;20494;-54
2022/03/14 11:44:47;;;;;;;21.23;12.30;;;9.60;99.90;;;;;;5031049;28;20159;-54
2022/03/14 11:47:14;;;;;;;30.10;12.98;;;9.50;99.90;;;;;;5020563;28;20479;-53
2022/03/14 11:49:40;;;;;;;19.05;11.40;;;9.50;99.90;;;;;;5031517;28;20014;-53
2022/03/14 11:52:18;;;;;;;23.38;12.82;;;9.60;99.90;;;;;;5029092;28;20518;-55
2022/03/14 11:54:49;;;;;;;28.10;13.05;;;9.70;99.90;;;;;;5031283;28;20028;-54
2022/03/14 11:57:36;;;;;;;21.45;12.27;;;9.80;99.90;;;;;;5029968;28;20156;-56
2022/03/14 12:00:27;;;;;;;25.20;12.55;;;10.00;99.90;;;;;;5030232;28;20451;-55
2022/03/14 12:03:01;;;;;;;32.35;13.15;;;10.00;99.90;;;;;;5030326;28;20025;-56
2022/03/14 12:05:33;;;;;;;25.35;12.68;;;10.20;99.90;;;;;;5021383;28;20450;-52
2022/03/14 12:07:59;;;;;;;24.67;13.38;;;10.40;99.90;;;;;;5030226;28;20026;-55
2022/03/14 12:10:33;;;;;;;21.50;12.30;;;10.50;99.90;;;;;;5029841;28;20040;-57
2022/03/14 12:12:59;;;;;;;26.23;13.00;;;10.60;99.90;;;;;;5029657;28;20030;-53
2022/03/14 12:15:46;;;;;;;37.30;20.88;;;10.70;99.90;;;;;;5029743;28;20445;-54
2022/03/14 12:18:27;;;;;;;29.40;15.38;;;11.00;99.90;;;;;;5019775;28;20109;-51
2022/03/14 12:21:04;;;;;;;24.23;12.00;;;11.20;99.90;;;;;;5027255;28;20033;-51
2022/03/14 12:23:34;;;;;;;22.33;11.98;;;11.20;99.90;;;;;;5029318;28;20021;-54
2022/03/14 12:26:25;;;;;;;22.33;12.63;;;11.20;99.90;;;;;;5027370;28;20561;-60
2022/03/14 12:28:52;;;;;;;23.92;12.45;;;10.90;99.90;;;;;;5028557;28;20783;-52
2022/03/14 12:31:19;;;;;;;24.23;13.90;;;10.80;99.90;;;;;;5027959;28;20041;-53
2022/03/14 12:33:49;;;;;;;21.55;12.38;;;10.60;99.90;;;;;;5030202;28;20041;-51
2022/03/14 12:36:23;;;;;;;21.40;13.75;;;10.40;99.90;;;;;;5029034;28;20030;-51
2022/03/14 12:39:10;;;;;;;25.60;14.27;;;10.40;99.90;;;;;;5030318;28;20018;-51
2022/03/14 12:41:36;;;;;;;24.38;13.13;;;10.40;99.90;;;;;;5028764;28;20454;-51
2022/03/14 12:44:19;;;;;;;23.15;13.75;;;10.40;99.90;;;;;;5029421;28;20022;-52
2022/03/14 12:46:58;;;;;;;30.73;14.38;;;10.30;99.90;;;;;;5028868;28;20096;-51
2022/03/14 12:49:38;;;;;;;27.73;15.13;;;10.20;99.90;;;;;;5027334;28;20033;-51
2022/03/14 12:52:21;;;;;;;31.58;16.30;;;10.20;99.90;;;;;;5028771;28;20056;-53